Terminal Aerodrome Forecast
Issued by NWS

Home | Current Version | Previous Version | Text Only | Print | Product List | Glossary On
Versions: 1 2 3 4 5 6 7 8 9 10 11 12 13 14 15 16
000
FTUS41 KBOX 182028 AAA
TAFFMH
TAF AMD
KFMH 182028Z 1820/1918 18016KT 3SM -RA BR VCTS OVC015CB
     FM182200 18016KT 6SM -RA SCT008 OVC015
     FM190500 19016KT 2SM RA BR VCTS OVC008CB
     FM190900 20012KT 3SM -RA BR OVC008
     FM191400 21010KT 6SM BR VCSH OVC015=

USA.gov is the U.S. government's official web portal to all federal, state and local government web resources and services.